マイアミ の空港の天気 - METARとTAF

マイアミ国際空港 ( KMIA / MIA ) - アメリカ フロリダ州マイアミ
飛行場実況気象(Metar)
観測時間05/28 11:17 EDT (05/28 15:17 UTC)
風向・風速東南東 5m/s
視程10km以上
天気現象
全天の4割程度の雲 雲底高度 700m
全天の8割程度の雲 雲底高度 850m
全天の8割程度の雲 雲底高度 1680m
気温29.4℃
湿度75%
気圧1019hPa
METARKMIA 281517Z 12009KT 10SM SCT023 BKN028 BKN055 29/24 A3008 RMK AO2 T02940244
過去の天気等 Google飛行場航空写真 Wunderground天気予報

過去48時間のMETAR

飛行場予報(TAF)
発表時間: 5/28 10:43 EDT (5/28 14:43 UTC)
予報対象時間: 28日11時 EDT ~ 29日14時 EDT
風向・風速東南東 4m/s
視程10km以上
全天の4割程度の雲 雲底高度 910m
全天の4割程度の雲 雲底高度 1520m
28日20時 EDT から
風向・風速東 3m/s
視程10km以上
全天の4割程度の雲 雲底高度 760m
29日10時 EDT から
風向・風速東南東 5m/s
視程10km以上
全天の4割程度の雲 雲底高度 910m
KMIA 281443Z 2815/2918 12008KT P6SM SCT030 SCT050
FM290000 09006KT P6SM SCT025
FM291400 12010KT P6SM SCT030